createdAt,value
2024-04-23T00:02:15.184Z,10.47
2024-04-23T00:04:42.051Z,10.45
2024-04-23T00:07:09.189Z,10.54
2024-04-23T00:09:36.006Z,10.53
2024-04-23T00:12:02.995Z,10.51
2024-04-23T00:14:29.904Z,10.48
2024-04-23T00:17:00.095Z,10.51
2024-04-23T00:19:26.811Z,10.51
2024-04-23T00:21:54.012Z,10.54
2024-04-23T00:24:20.724Z,10.59
2024-04-23T00:27:00.282Z,10.58
2024-04-23T00:29:27.562Z,10.60
2024-04-23T00:31:55.137Z,10.60
2024-04-23T00:34:22.070Z,10.62
2024-04-23T00:36:51.852Z,10.67
2024-04-23T00:39:18.655Z,10.64
2024-04-23T00:41:45.349Z,10.64
2024-04-23T00:44:12.649Z,10.67
2024-04-23T00:46:39.633Z,10.69
2024-04-23T00:49:08.387Z,10.69
2024-04-23T00:51:35.400Z,10.67
2024-04-23T00:54:02.517Z,10.72
2024-04-23T00:56:29.769Z,10.73
2024-04-23T00:58:56.500Z,10.73
2024-04-23T01:01:23.189Z,10.74
2024-04-23T01:03:49.789Z,10.75
2024-04-23T01:06:16.595Z,10.75
2024-04-23T01:08:43.334Z,10.77
2024-04-23T01:11:10.117Z,10.77
2024-04-23T01:13:36.894Z,10.77
2024-04-23T01:16:03.704Z,10.77
2024-04-23T01:18:30.723Z,10.75
2024-04-23T01:20:59.196Z,10.72
2024-04-23T01:23:44.882Z,10.73
2024-04-23T01:26:11.632Z,11.01
2024-04-23T01:28:39.365Z,11.05
2024-04-23T01:31:06.306Z,11.09
2024-04-23T01:33:36.402Z,11.10
2024-04-23T01:36:03.703Z,11.09
2024-04-23T01:38:31.893Z,11.05
2024-04-23T01:40:58.423Z,11.05
2024-04-23T01:43:25.552Z,11.03
2024-04-23T01:45:52.270Z,10.91
2024-04-23T01:48:19.507Z,10.75
2024-04-23T01:50:46.264Z,10.74
2024-04-23T01:53:13.523Z,10.77
2024-04-23T01:55:40.427Z,10.67
2024-04-23T01:58:07.051Z,10.89
2024-04-23T02:00:35.104Z,10.74
2024-04-23T02:03:01.930Z,10.67
2024-04-23T02:05:28.870Z,10.61
2024-04-23T02:07:56.075Z,10.61
2024-04-23T02:10:23.088Z,10.55
2024-04-23T02:12:50.084Z,10.49
2024-04-23T02:15:17.274Z,10.47
2024-04-23T02:17:44.183Z,10.50
2024-04-23T02:20:12.295Z,10.49
2024-04-23T02:22:39.071Z,10.45
2024-04-23T02:25:05.878Z,10.36
2024-04-23T02:27:32.501Z,10.38
2024-04-23T02:30:02.667Z,10.33
2024-04-23T02:32:29.712Z,10.31
2024-04-23T02:34:56.431Z,10.30
2024-04-23T02:37:23.220Z,10.30
2024-04-23T02:39:49.854Z,10.29
2024-04-23T02:42:16.894Z,10.26
2024-04-23T02:44:44.306Z,10.29
2024-04-23T02:47:10.994Z,10.29
2024-04-23T02:49:37.610Z,10.25
2024-04-23T02:52:04.414Z,10.26
2024-04-23T02:54:31.276Z,10.27
2024-04-23T02:56:58.295Z,10.28
2024-04-23T02:59:25.270Z,10.23
2024-04-23T03:02:21.193Z,10.26
2024-04-23T03:04:48.063Z,10.23
2024-04-23T03:07:14.813Z,10.19
2024-04-23T03:09:41.392Z,10.16
2024-04-23T03:12:08.493Z,10.12
2024-04-23T03:14:35.333Z,10.16
2024-04-23T03:17:02.364Z,10.18
2024-04-23T03:19:29.645Z,10.16
2024-04-23T03:21:57.197Z,10.13
2024-04-23T03:24:24.471Z,10.15
2024-04-23T03:26:51.296Z,10.14
2024-04-23T03:29:21.044Z,10.12
2024-04-23T03:31:48.106Z,10.10
2024-04-23T03:34:15.001Z,10.12
2024-04-23T03:36:42.833Z,10.11
2024-04-23T03:39:09.467Z,10.10
2024-04-23T03:41:36.172Z,10.16
2024-04-23T03:44:03.411Z,10.17
2024-04-23T03:46:31.026Z,10.16
2024-04-23T03:48:57.835Z,10.13
2024-04-23T03:51:24.866Z,10.05
2024-04-23T03:53:51.393Z,9.96
2024-04-23T03:56:18.676Z,10.32
2024-04-23T03:58:45.420Z,10.07
2024-04-23T04:01:12.249Z,9.96
2024-04-23T04:03:57.876Z,9.96
2024-04-23T04:06:25.156Z,9.93
2024-04-23T04:08:54.569Z,10.03
2024-04-23T04:11:23.274Z,10.07
2024-04-23T04:13:49.938Z,10.06
2024-04-23T04:16:16.577Z,10.46
2024-04-23T04:18:43.714Z,10.56
2024-04-23T04:21:10.377Z,10.60
2024-04-23T04:23:36.877Z,10.59
2024-04-23T04:26:03.893Z,10.50
2024-04-23T04:28:31.471Z,10.39
2024-04-23T04:30:58.471Z,10.41
2024-04-23T04:33:25.641Z,10.48
2024-04-23T04:35:52.492Z,10.36
2024-04-23T04:38:19.354Z,10.28
2024-04-23T04:40:46.334Z,10.09
2024-04-23T04:43:13.356Z,9.95
2024-04-23T04:45:40.099Z,9.93
2024-04-23T04:48:08.272Z,10.07
2024-04-23T04:50:35.116Z,10.17
2024-04-23T04:53:02.000Z,10.20
2024-04-23T04:55:32.847Z,10.22
2024-04-23T04:57:59.779Z,10.22
2024-04-23T05:00:26.483Z,10.25
2024-04-23T05:02:53.389Z,10.28
2024-04-23T05:05:20.630Z,10.35
2024-04-23T05:07:48.466Z,10.40
2024-04-23T05:10:15.645Z,10.47
2024-04-23T05:12:42.482Z,10.55
2024-04-23T05:15:09.127Z,10.65
2024-04-23T05:17:36.470Z,10.63
2024-04-23T05:20:03.832Z,10.64
2024-04-23T05:22:42.114Z,10.69
2024-04-23T05:25:11.185Z,10.73
2024-04-23T05:27:37.918Z,10.75
2024-04-23T05:30:05.481Z,10.71
2024-04-23T05:32:51.792Z,10.85
2024-04-23T05:35:18.527Z,10.93
2024-04-23T05:37:46.050Z,10.88
2024-04-23T05:40:13.232Z,11.46
2024-04-23T05:42:40.082Z,11.27
2024-04-23T05:45:07.251Z,11.26
2024-04-23T05:48:12.929Z,11.23
2024-04-23T05:51:36.132Z,11.57
2024-04-23T05:54:59.683Z,11.38
2024-04-23T05:57:45.293Z,11.23
2024-04-23T06:00:12.328Z,11.58
2024-04-23T06:02:39.547Z,11.37
2024-04-23T06:05:06.473Z,11.22
2024-04-23T06:07:33.688Z,11.35
2024-04-23T06:10:00.437Z,11.29
2024-04-23T06:12:27.494Z,11.49
2024-04-23T06:14:54.700Z,11.31
2024-04-23T06:17:31.851Z,11.23
2024-04-23T06:20:06.300Z,11.27
2024-04-23T06:22:39.226Z,11.26
2024-04-23T06:25:08.037Z,11.27
2024-04-23T06:27:39.176Z,11.56
2024-04-23T06:30:10.538Z,11.46
2024-04-23T06:32:38.621Z,11.48
2024-04-23T06:35:05.832Z,11.53
2024-04-23T06:37:34.065Z,11.64
2024-04-23T06:40:01.229Z,11.63
2024-04-23T06:42:28.206Z,11.72
2024-04-23T06:44:55.719Z,11.65
2024-04-23T06:47:22.735Z,11.83
2024-04-23T06:49:49.874Z,12.08
2024-04-23T06:52:18.033Z,11.75
2024-04-23T06:54:45.126Z,11.71
2024-04-23T06:57:11.864Z,11.73
2024-04-23T06:59:38.785Z,11.94
2024-04-23T07:02:05.630Z,11.89
2024-04-23T07:04:32.614Z,12.00
2024-04-23T07:07:01.450Z,12.01
2024-04-23T07:09:28.068Z,12.04
2024-04-23T07:11:55.243Z,12.17
2024-04-23T07:14:22.357Z,12.17
2024-04-23T07:16:49.299Z,12.15
2024-04-23T07:19:16.076Z,12.17
2024-04-23T07:21:43.078Z,12.20
2024-04-23T07:24:10.161Z,12.27
2024-04-23T07:26:37.080Z,12.32
2024-04-23T07:29:04.687Z,12.38
2024-04-23T07:31:31.501Z,12.43
2024-04-23T07:33:58.231Z,12.47
2024-04-23T07:36:25.219Z,12.59
2024-04-23T07:38:52.309Z,12.65
2024-04-23T07:41:19.175Z,12.79
2024-04-23T07:43:46.329Z,12.88
2024-04-23T07:46:13.181Z,12.79
2024-04-23T07:48:39.978Z,12.82
2024-04-23T07:51:07.129Z,12.83
2024-04-23T07:53:34.212Z,12.75
2024-04-23T07:56:01.227Z,12.85
2024-04-23T07:58:28.274Z,12.89
2024-04-23T08:00:55.920Z,12.98
2024-04-23T08:03:22.785Z,13.03
2024-04-23T08:05:54.794Z,12.98
2024-04-23T08:08:21.998Z,12.97
2024-04-23T08:10:49.145Z,13.01
2024-04-23T08:13:16.757Z,13.05
2024-04-23T08:15:44.285Z,13.14
2024-04-23T08:18:11.845Z,13.06
2024-04-23T08:20:42.080Z,13.22
2024-04-23T08:23:10.366Z,13.30
2024-04-23T08:25:37.343Z,13.37
2024-04-23T08:28:04.863Z,13.41
2024-04-23T08:30:32.833Z,13.44
2024-04-23T08:32:59.737Z,13.50
2024-04-23T08:35:27.363Z,13.72
2024-04-23T08:37:54.147Z,13.77
2024-04-23T08:40:21.533Z,13.94
2024-04-23T08:42:48.724Z,14.08
2024-04-23T08:45:15.714Z,14.11
2024-04-23T08:47:42.950Z,14.19
2024-04-23T08:50:10.533Z,14.15
2024-04-23T08:52:38.350Z,14.29
2024-04-23T08:55:06.108Z,14.41
2024-04-23T08:57:33.309Z,14.51
2024-04-23T09:00:01.976Z,14.61
2024-04-23T09:02:33.101Z,14.60
2024-04-23T09:05:01.593Z,14.66
2024-04-23T09:07:32.991Z,14.72
2024-04-23T09:10:02.562Z,14.76
2024-04-23T09:12:29.670Z,14.75
2024-04-23T09:14:58.319Z,14.78
2024-04-23T09:17:25.564Z,14.87
2024-04-23T09:19:53.925Z,14.94
2024-04-23T09:22:20.914Z,14.92
2024-04-23T09:24:47.858Z,14.87
2024-04-23T09:27:14.887Z,14.99
2024-04-23T09:29:41.941Z,14.93
2024-04-23T09:32:09.083Z,15.02
2024-04-23T09:34:39.322Z,15.19
2024-04-23T09:37:17.312Z,15.30
2024-04-23T09:39:46.582Z,15.36
2024-04-23T09:42:24.242Z,15.44
2024-04-23T09:44:51.511Z,15.53
2024-04-23T09:47:18.204Z,15.58
2024-04-23T09:49:54.115Z,15.65
2024-04-23T09:52:30.442Z,15.70
2024-04-23T09:54:57.845Z,15.72
2024-04-23T09:57:24.752Z,15.74
2024-04-23T09:59:51.576Z,15.71
2024-04-23T10:03:28.218Z,15.28
2024-04-23T10:05:59.848Z,15.48
2024-04-23T10:08:39.857Z,15.52
2024-04-23T10:11:07.404Z,15.55
2024-04-23T10:13:39.552Z,15.58
2024-04-23T10:16:27.390Z,15.60
2024-04-23T10:19:04.131Z,15.60
2024-04-23T10:21:34.255Z,15.61
2024-04-23T10:24:11.347Z,15.63
2024-04-23T10:26:41.280Z,15.66
2024-04-23T10:29:09.986Z,15.73
2024-04-23T10:31:38.071Z,15.74
2024-04-23T10:34:06.833Z,15.81
2024-04-23T10:36:37.115Z,15.98
2024-04-23T10:39:04.721Z,16.11
2024-04-23T10:41:32.195Z,16.24
2024-04-23T10:43:59.682Z,16.37
2024-04-23T10:46:27.215Z,16.53
2024-04-23T10:48:56.231Z,16.60
2024-04-23T10:51:24.585Z,16.64
2024-04-23T10:53:55.081Z,16.68
2024-04-23T10:56:26.199Z,16.74
2024-04-23T10:59:14.875Z,16.85
2024-04-23T11:01:52.271Z,17.00
2024-04-23T11:04:33.370Z,17.09
2024-04-23T11:07:04.213Z,17.11
2024-04-23T11:09:38.128Z,17.08
2024-04-23T11:12:15.515Z,17.05
2024-04-23T11:14:43.012Z,16.99
2024-04-23T11:17:10.489Z,17.00
2024-04-23T11:19:38.651Z,17.08
2024-04-23T11:22:10.800Z,17.10
2024-04-23T11:24:44.209Z,17.12
2024-04-23T11:27:15.318Z,17.15
2024-04-23T11:29:43.849Z,17.18
2024-04-23T11:32:12.489Z,17.22
2024-04-23T11:34:41.834Z,17.25
2024-04-23T11:37:09.706Z,17.28
2024-04-23T11:39:37.898Z,17.32
2024-04-23T11:42:13.115Z,17.31
2024-04-23T11:44:40.715Z,17.29
2024-04-23T11:47:09.740Z,17.22
2024-04-23T11:49:37.348Z,17.03
2024-04-23T11:52:08.160Z,16.95
2024-04-23T11:54:38.521Z,16.96
2024-04-23T11:57:05.928Z,17.01
2024-04-23T11:59:33.493Z,17.04
2024-04-23T12:02:01.224Z,17.11
2024-04-23T12:04:28.798Z,17.20
2024-04-23T12:06:56.732Z,17.28
2024-04-23T12:09:25.015Z,17.38
2024-04-23T12:11:52.564Z,17.40
2024-04-23T12:14:20.847Z,17.50
2024-04-23T12:16:48.459Z,17.57
2024-04-23T12:19:15.951Z,17.60
2024-04-23T12:21:43.656Z,17.62
2024-04-23T12:24:15.717Z,17.62
2024-04-23T12:26:44.476Z,17.61
2024-04-23T12:29:12.163Z,17.57
2024-04-23T12:31:40.212Z,17.56
2024-04-23T12:34:08.065Z,17.59
2024-04-23T12:36:36.833Z,17.66
2024-04-23T12:39:10.583Z,17.71
2024-04-23T12:41:39.472Z,17.77
2024-04-23T12:44:13.878Z,17.87
2024-04-23T12:46:41.699Z,17.94
2024-04-23T12:49:09.570Z,17.93
2024-04-23T12:51:37.531Z,17.95
2024-04-23T12:54:09.772Z,17.95
2024-04-23T12:56:37.414Z,17.90
2024-04-23T12:59:07.285Z,17.89
2024-04-23T13:01:42.148Z,17.86
2024-04-23T13:04:13.569Z,17.82
2024-04-23T13:06:42.786Z,17.77
2024-04-23T13:09:10.258Z,17.74
2024-04-23T13:11:38.010Z,17.76
2024-04-23T13:14:05.691Z,17.69
2024-04-23T13:16:41.915Z,17.59
2024-04-23T13:19:14.785Z,17.56
2024-04-23T13:21:42.218Z,17.52
2024-04-23T13:24:09.649Z,17.48
2024-04-23T13:26:37.343Z,17.48
2024-04-23T13:29:04.883Z,17.48
2024-04-23T13:31:32.457Z,17.51
2024-04-23T13:34:00.264Z,17.58
2024-04-23T13:36:27.726Z,17.61
2024-04-23T13:38:55.201Z,17.61
2024-04-23T13:41:23.769Z,17.57
2024-04-23T13:43:51.330Z,17.56
2024-04-23T13:46:19.587Z,17.56
2024-04-23T13:48:47.395Z,17.58
2024-04-23T13:51:14.780Z,17.63
2024-04-23T13:53:43.756Z,17.80
2024-04-23T13:56:12.693Z,18.38
2024-04-23T13:58:40.515Z,18.24
2024-04-23T14:01:09.359Z,18.12
2024-04-23T14:03:37.561Z,18.02
2024-04-23T14:06:08.323Z,17.89
2024-04-23T14:08:36.379Z,17.88
2024-04-23T14:11:05.302Z,17.83
2024-04-23T14:13:34.296Z,17.78
2024-04-23T14:16:11.623Z,17.73
2024-04-23T14:18:43.093Z,17.67
2024-04-23T14:21:10.689Z,17.64
2024-04-23T14:23:39.731Z,17.61
2024-04-23T14:26:07.493Z,17.50
2024-04-23T14:28:37.579Z,17.34
2024-04-23T14:31:05.287Z,17.49
2024-04-23T14:33:33.202Z,17.45
2024-04-23T14:36:02.821Z,17.44
2024-04-23T14:38:32.094Z,17.42
2024-04-23T14:41:00.633Z,17.40
2024-04-23T14:43:28.285Z,17.41
2024-04-23T14:45:56.139Z,17.41
2024-04-23T14:48:24.716Z,17.43
2024-04-23T14:50:52.571Z,17.35
2024-04-23T14:53:21.962Z,17.38
2024-04-23T14:56:03.555Z,17.44
2024-04-23T14:58:32.185Z,17.43
2024-04-23T15:00:59.806Z,17.43
2024-04-23T15:03:29.734Z,17.48
2024-04-23T15:05:57.271Z,17.53
2024-04-23T15:08:25.715Z,17.57
2024-04-23T15:10:57.910Z,17.52
2024-04-23T15:13:27.083Z,17.46
2024-04-23T15:16:04.625Z,17.43
2024-04-23T15:18:39.807Z,17.42
2024-04-23T15:21:11.944Z,17.43
2024-04-23T15:23:39.363Z,17.44
2024-04-23T15:26:07.379Z,17.42
2024-04-23T15:28:36.740Z,17.35
2024-04-23T15:31:05.681Z,17.27
2024-04-23T15:33:40.130Z,17.22
2024-04-23T15:36:22.718Z,17.18
2024-04-23T15:38:57.743Z,17.18
2024-04-23T15:41:25.562Z,17.17
2024-04-23T15:43:53.376Z,17.19
2024-04-23T15:46:21.189Z,17.19
2024-04-23T15:48:48.929Z,17.18
2024-04-23T15:51:16.464Z,17.17
2024-04-23T15:53:44.898Z,17.13
2024-04-23T15:56:13.563Z,17.09
2024-04-23T15:58:41.261Z,17.07
2024-04-23T16:01:09.701Z,17.03
2024-04-23T16:03:43.438Z,16.99
2024-04-23T16:06:18.364Z,16.95
2024-04-23T16:08:48.633Z,16.91
2024-04-23T16:11:16.376Z,16.88
2024-04-23T16:13:44.679Z,16.83
2024-04-23T16:16:12.320Z,16.75
2024-04-23T16:18:39.872Z,16.68
2024-04-23T16:21:12.469Z,16.64
2024-04-23T16:23:40.396Z,16.60
2024-04-23T16:26:08.352Z,16.53
2024-04-23T16:28:36.803Z,16.46
2024-04-23T16:31:05.433Z,16.39
2024-04-23T16:33:37.074Z,16.27
2024-04-23T16:36:06.037Z,16.20
2024-04-23T16:38:40.135Z,16.10
2024-04-23T16:41:10.936Z,16.02
2024-04-23T16:43:38.833Z,15.92
2024-04-23T16:46:10.243Z,15.87
2024-04-23T16:48:38.680Z,15.79
2024-04-23T16:51:09.525Z,15.75
2024-04-23T16:53:39.873Z,15.71
2024-04-23T16:56:09.455Z,15.65
2024-04-23T16:58:37.195Z,15.57
2024-04-23T17:01:08.543Z,15.52
2024-04-23T17:03:36.380Z,15.46
2024-04-23T17:06:04.246Z,15.39
2024-04-23T17:08:32.204Z,15.31
2024-04-23T17:11:03.668Z,15.27
2024-04-23T17:13:33.561Z,15.21
2024-04-23T17:16:14.627Z,15.14
2024-04-23T17:18:42.773Z,15.08
2024-04-23T17:21:14.309Z,15.02
2024-04-23T17:23:42.640Z,14.95
2024-04-23T17:26:10.396Z,14.89
2024-04-23T17:28:37.938Z,14.82
2024-04-23T17:31:08.370Z,14.74
2024-04-23T17:33:36.428Z,14.69
2024-04-23T17:36:04.007Z,14.63
2024-04-23T17:38:31.434Z,14.56
2024-04-23T17:40:59.141Z,14.52
2024-04-23T17:43:26.881Z,14.54
2024-04-23T17:46:03.936Z,14.48
2024-04-23T17:48:34.624Z,14.45
2024-04-23T17:51:06.355Z,14.38
2024-04-23T17:53:34.491Z,14.32
2024-04-23T17:56:02.574Z,14.25
2024-04-23T17:58:30.527Z,14.19
2024-04-23T18:00:57.989Z,14.16
2024-04-23T18:03:27.480Z,14.11
2024-04-23T18:05:55.182Z,13.97
2024-04-23T18:08:22.702Z,13.99
2024-04-23T18:10:50.281Z,13.97
2024-04-23T18:13:17.868Z,14.05
2024-04-23T18:15:45.954Z,14.00
2024-04-23T18:18:16.981Z,14.02
2024-04-23T18:20:44.596Z,14.01
2024-04-23T18:23:11.986Z,14.01
2024-04-23T18:25:39.497Z,13.97
2024-04-23T18:28:07.362Z,13.97
2024-04-23T18:30:36.070Z,13.96
2024-04-23T18:33:03.952Z,13.99
2024-04-23T18:35:31.660Z,13.99
2024-04-23T18:37:59.329Z,13.85
2024-04-23T18:40:26.855Z,13.96
2024-04-23T18:42:54.627Z,13.85
2024-04-23T18:45:22.063Z,13.80
2024-04-23T18:47:49.600Z,13.78
2024-04-23T18:50:17.293Z,13.76
2024-04-23T18:52:45.192Z,13.76
2024-04-23T18:55:12.894Z,13.69
2024-04-23T18:57:40.529Z,13.66
2024-04-23T19:00:10.156Z,13.67
2024-04-23T19:02:37.962Z,13.57
2024-04-23T19:05:05.831Z,13.53
2024-04-23T19:07:33.238Z,13.58
2024-04-23T19:10:00.670Z,13.51
2024-04-23T19:12:28.211Z,13.41
2024-04-23T19:14:55.718Z,13.38
2024-04-23T19:17:23.247Z,13.47
2024-04-23T19:19:50.956Z,13.26
2024-04-23T19:22:18.512Z,13.24
2024-04-23T19:24:45.915Z,13.19
2024-04-23T19:27:13.433Z,13.16
2024-04-23T19:29:41.070Z,13.13
2024-04-23T19:32:08.967Z,13.10
2024-04-23T19:34:36.722Z,13.09
2024-04-23T19:37:04.268Z,13.02
2024-04-23T19:39:31.955Z,13.00
2024-04-23T19:41:59.660Z,12.94
2024-04-23T19:44:28.347Z,12.91
2024-04-23T19:46:55.813Z,12.88
2024-04-23T19:49:23.412Z,12.82
2024-04-23T19:51:50.970Z,12.80
2024-04-23T19:54:18.459Z,12.77
2024-04-23T19:56:49.250Z,12.73
2024-04-23T19:59:16.924Z,12.69
2024-04-23T20:01:44.735Z,12.65
2024-04-23T20:04:12.814Z,12.59
2024-04-23T20:06:40.500Z,12.92
2024-04-23T20:09:09.000Z,12.75
2024-04-23T20:11:37.233Z,12.56
2024-04-23T20:14:04.947Z,12.54
2024-04-23T20:16:32.407Z,12.51
2024-04-23T20:19:00.044Z,12.48
2024-04-23T20:21:28.040Z,12.52
2024-04-23T20:23:55.797Z,12.49
2024-04-23T20:26:24.461Z,12.46
2024-04-23T20:28:53.335Z,12.43
2024-04-23T20:31:21.647Z,12.42
2024-04-23T20:33:50.020Z,12.41
2024-04-23T20:36:17.798Z,12.42
2024-04-23T20:38:45.368Z,12.64
2024-04-23T20:41:15.865Z,12.63
2024-04-23T20:43:43.570Z,12.41
2024-04-23T20:46:11.307Z,12.39
2024-04-23T20:48:39.070Z,12.38
2024-04-23T20:51:06.615Z,12.36
2024-04-23T20:53:34.022Z,12.34
2024-04-23T20:56:06.211Z,12.32
2024-04-23T20:58:34.300Z,12.33
2024-04-23T21:01:07.242Z,12.31
2024-04-23T21:03:34.826Z,12.30
2024-04-23T21:06:02.467Z,12.32
2024-04-23T21:08:30.084Z,12.29
2024-04-23T21:10:57.766Z,12.28
2024-04-23T21:13:29.087Z,12.28
2024-04-23T21:15:58.403Z,12.24
2024-04-23T21:18:29.132Z,12.31
2024-04-23T21:20:59.904Z,12.19
2024-04-23T21:23:27.396Z,12.20
2024-04-23T21:25:54.968Z,12.10
2024-04-23T21:28:25.363Z,12.10
2024-04-23T21:30:58.481Z,12.08
2024-04-23T21:33:26.547Z,12.06
2024-04-23T21:35:54.127Z,12.05
2024-04-23T21:38:21.833Z,12.12
2024-04-23T21:40:49.461Z,12.06
2024-04-23T21:43:16.817Z,11.99
2024-04-23T21:45:44.185Z,11.99
2024-04-23T21:48:14.469Z,11.99
2024-04-23T21:50:43.768Z,11.98
2024-04-23T21:53:11.340Z,11.98
2024-04-23T21:55:38.790Z,11.96
2024-04-23T21:58:06.219Z,11.93
2024-04-23T22:00:33.586Z,11.92
2024-04-23T22:03:01.280Z,11.93
2024-04-23T22:05:30.849Z,11.98
2024-04-23T22:07:58.164Z,12.02
2024-04-23T22:10:25.588Z,12.01
2024-04-23T22:12:53.069Z,12.03
2024-04-23T22:15:28.252Z,12.05
2024-04-23T22:19:45.936Z,11.81
2024-04-23T22:22:13.355Z,12.02
2024-04-23T22:24:42.879Z,12.05
2024-04-23T22:27:10.769Z,12.04
2024-04-23T22:29:38.202Z,12.06
2024-04-23T22:32:06.276Z,12.06
2024-04-23T22:34:33.975Z,12.10
2024-04-23T22:37:01.404Z,12.12
2024-04-23T22:39:28.784Z,12.10
2024-04-23T22:41:56.324Z,12.08
2024-04-23T22:44:24.991Z,12.09
2024-04-23T22:46:52.378Z,12.08
2024-04-23T22:49:19.781Z,12.06
2024-04-23T22:51:50.111Z,12.12
2024-04-23T22:54:17.561Z,12.07
2024-04-23T22:56:45.402Z,12.08
2024-04-23T22:59:12.723Z,12.08
2024-04-23T23:01:40.168Z,12.11
2024-04-23T23:04:08.676Z,12.12
2024-04-23T23:06:36.482Z,12.09
2024-04-23T23:09:04.850Z,12.04
2024-04-23T23:11:32.604Z,12.05
2024-04-23T23:14:00.500Z,12.13
2024-04-23T23:16:28.086Z,12.12
2024-04-23T23:18:55.572Z,12.15
2024-04-23T23:21:23.037Z,12.15
